sensor_id;sensor_type;location;lat;lon;timestamp;P1;durP1;ratioP1;P2;durP2;ratioP2
7426;SDS011;3755;59.316;18.092;2022-08-19T00:00:36;53.38;;;25.38;;
7426;SDS011;3755;59.316;18.092;2022-08-19T00:03:03;47.97;;;25.20;;
7426;SDS011;3755;59.316;18.092;2022-08-19T00:05:32;52.80;;;24.52;;
7426;SDS011;3755;59.316;18.092;2022-08-19T00:07:59;54.78;;;25.27;;
7426;SDS011;3755;59.316;18.092;2022-08-19T00:10:26;47.40;;;26.50;;
7426;SDS011;3755;59.316;18.092;2022-08-19T00:12:53;49.35;;;26.85;;
7426;SDS011;3755;59.316;18.092;2022-08-19T00:15:21;43.20;;;24.33;;
7426;SDS011;3755;59.316;18.092;2022-08-19T00:17:48;59.55;;;25.58;;
7426;SDS011;3755;59.316;18.092;2022-08-19T00:20:18;51.95;;;26.25;;
7426;SDS011;3755;59.316;18.092;2022-08-19T00:22:48;56.88;;;25.98;;
7426;SDS011;3755;59.316;18.092;2022-08-19T00:25:15;52.65;;;27.08;;
7426;SDS011;3755;59.316;18.092;2022-08-19T00:27:43;60.03;;;27.95;;
7426;SDS011;3755;59.316;18.092;2022-08-19T00:30:11;49.58;;;27.20;;
7426;SDS011;3755;59.316;18.092;2022-08-19T00:32:39;45.10;;;26.90;;
7426;SDS011;3755;59.316;18.092;2022-08-19T00:35:07;46.88;;;26.67;;
7426;SDS011;3755;59.316;18.092;2022-08-19T00:37:35;43.00;;;23.98;;
7426;SDS011;3755;59.316;18.092;2022-08-19T00:40:05;40.67;;;25.60;;
7426;SDS011;3755;59.316;18.092;2022-08-19T00:42:33;38.75;;;25.50;;
7426;SDS011;3755;59.316;18.092;2022-08-19T00:45:00;42.00;;;25.58;;
7426;SDS011;3755;59.316;18.092;2022-08-19T00:47:27;43.03;;;26.60;;
7426;SDS011;3755;59.316;18.092;2022-08-19T00:49:56;41.00;;;26.85;;
7426;SDS011;3755;59.316;18.092;2022-08-19T00:52:24;38.55;;;26.20;;
7426;SDS011;3755;59.316;18.092;2022-08-19T00:54:54;45.55;;;26.77;;
7426;SDS011;3755;59.316;18.092;2022-08-19T00:57:25;40.30;;;26.48;;
7426;SDS011;3755;59.316;18.092;2022-08-19T00:59:55;39.03;;;26.20;;
7426;SDS011;3755;59.316;18.092;2022-08-19T01:02:24;33.75;;;24.55;;
7426;SDS011;3755;59.316;18.092;2022-08-19T01:04:52;38.63;;;25.25;;
7426;SDS011;3755;59.316;18.092;2022-08-19T01:07:21;36.67;;;25.42;;
7426;SDS011;3755;59.316;18.092;2022-08-19T01:09:48;35.08;;;26.25;;
7426;SDS011;3755;59.316;18.092;2022-08-19T01:12:15;37.45;;;25.60;;
7426;SDS011;3755;59.316;18.092;2022-08-19T01:14:47;36.33;;;26.48;;
7426;SDS011;3755;59.316;18.092;2022-08-19T01:17:15;37.22;;;25.30;;
7426;SDS011;3755;59.316;18.092;2022-08-19T01:19:43;43.40;;;27.08;;
7426;SDS011;3755;59.316;18.092;2022-08-19T01:22:14;38.53;;;27.88;;
7426;SDS011;3755;59.316;18.092;2022-08-19T01:24:47;39.53;;;27.42;;
7426;SDS011;3755;59.316;18.092;2022-08-19T01:27:14;42.88;;;27.65;;
7426;SDS011;3755;59.316;18.092;2022-08-19T01:29:42;44.00;;;27.85;;
7426;SDS011;3755;59.316;18.092;2022-08-19T01:32:11;37.80;;;27.10;;
7426;SDS011;3755;59.316;18.092;2022-08-19T01:34:40;40.33;;;26.98;;
7426;SDS011;3755;59.316;18.092;2022-08-19T01:37:12;39.38;;;27.30;;
7426;SDS011;3755;59.316;18.092;2022-08-19T01:39:40;37.58;;;27.20;;
7426;SDS011;3755;59.316;18.092;2022-08-19T01:42:14;36.85;;;27.25;;
7426;SDS011;3755;59.316;18.092;2022-08-19T01:44:41;39.67;;;28.20;;
7426;SDS011;3755;59.316;18.092;2022-08-19T01:47:09;40.10;;;27.27;;
7426;SDS011;3755;59.316;18.092;2022-08-19T01:49:36;41.15;;;26.73;;
7426;SDS011;3755;59.316;18.092;2022-08-19T01:52:03;40.22;;;27.40;;
7426;SDS011;3755;59.316;18.092;2022-08-19T01:54:31;37.55;;;28.40;;
7426;SDS011;3755;59.316;18.092;2022-08-19T01:57:01;41.35;;;28.23;;
7426;SDS011;3755;59.316;18.092;2022-08-19T01:59:32;42.85;;;27.48;;
7426;SDS011;3755;59.316;18.092;2022-08-19T02:02:01;40.30;;;27.65;;
7426;SDS011;3755;59.316;18.092;2022-08-19T02:04:29;40.22;;;27.58;;
7426;SDS011;3755;59.316;18.092;2022-08-19T02:06:57;43.30;;;28.23;;
7426;SDS011;3755;59.316;18.092;2022-08-19T02:09:24;40.28;;;28.92;;
7426;SDS011;3755;59.316;18.092;2022-08-19T02:11:52;42.97;;;28.48;;
7426;SDS011;3755;59.316;18.092;2022-08-19T02:14:19;38.58;;;27.80;;
7426;SDS011;3755;59.316;18.092;2022-08-19T02:16:48;41.42;;;27.17;;
7426;SDS011;3755;59.316;18.092;2022-08-19T02:19:15;37.20;;;26.75;;
7426;SDS011;3755;59.316;18.092;2022-08-19T02:21:42;40.67;;;27.55;;
7426;SDS011;3755;59.316;18.092;2022-08-19T02:24:09;34.90;;;26.65;;
7426;SDS011;3755;59.316;18.092;2022-08-19T02:26:37;40.83;;;26.63;;
7426;SDS011;3755;59.316;18.092;2022-08-19T02:29:04;38.05;;;27.80;;
7426;SDS011;3755;59.316;18.092;2022-08-19T02:31:31;47.83;;;28.23;;
7426;SDS011;3755;59.316;18.092;2022-08-19T02:34:00;40.95;;;28.48;;
7426;SDS011;3755;59.316;18.092;2022-08-19T02:36:27;42.38;;;28.63;;
7426;SDS011;3755;59.316;18.092;2022-08-19T02:38:55;38.67;;;28.52;;
7426;SDS011;3755;59.316;18.092;2022-08-19T02:41:22;35.55;;;25.00;;
7426;SDS011;3755;59.316;18.092;2022-08-19T02:43:50;39.20;;;27.80;;
7426;SDS011;3755;59.316;18.092;2022-08-19T02:46:19;38.97;;;28.27;;
7426;SDS011;3755;59.316;18.092;2022-08-19T02:48:47;39.03;;;27.30;;
7426;SDS011;3755;59.316;18.092;2022-08-19T02:51:20;43.03;;;28.25;;
7426;SDS011;3755;59.316;18.092;2022-08-19T02:53:49;41.65;;;26.65;;
7426;SDS011;3755;59.316;18.092;2022-08-19T02:56:16;38.88;;;27.88;;
7426;SDS011;3755;59.316;18.092;2022-08-19T02:58:44;34.90;;;27.70;;
7426;SDS011;3755;59.316;18.092;2022-08-19T03:01:18;37.22;;;26.20;;
7426;SDS011;3755;59.316;18.092;2022-08-19T03:03:46;38.28;;;26.10;;
7426;SDS011;3755;59.316;18.092;2022-08-19T03:06:15;38.55;;;26.48;;
7426;SDS011;3755;59.316;18.092;2022-08-19T03:08:44;41.90;;;26.55;;
7426;SDS011;3755;59.316;18.092;2022-08-19T03:11:13;42.47;;;28.20;;
7426;SDS011;3755;59.316;18.092;2022-08-19T03:13:41;37.28;;;28.15;;
7426;SDS011;3755;59.316;18.092;2022-08-19T03:16:09;42.72;;;27.88;;
7426;SDS011;3755;59.316;18.092;2022-08-19T03:18:37;36.13;;;26.92;;
7426;SDS011;3755;59.316;18.092;2022-08-19T03:21:05;36.60;;;25.80;;
7426;SDS011;3755;59.316;18.092;2022-08-19T03:23:33;37.45;;;25.35;;
7426;SDS011;3755;59.316;18.092;2022-08-19T03:26:04;40.08;;;26.63;;
7426;SDS011;3755;59.316;18.092;2022-08-19T03:28:31;39.25;;;25.95;;
7426;SDS011;3755;59.316;18.092;2022-08-19T03:30:59;39.33;;;27.17;;
7426;SDS011;3755;59.316;18.092;2022-08-19T03:33:28;36.97;;;25.63;;
7426;SDS011;3755;59.316;18.092;2022-08-19T03:36:01;38.60;;;25.90;;
7426;SDS011;3755;59.316;18.092;2022-08-19T03:38:31;36.88;;;27.42;;
7426;SDS011;3755;59.316;18.092;2022-08-19T03:41:01;42.22;;;27.55;;
7426;SDS011;3755;59.316;18.092;2022-08-19T03:43:31;36.63;;;25.52;;
7426;SDS011;3755;59.316;18.092;2022-08-19T03:46:00;45.15;;;27.15;;
7426;SDS011;3755;59.316;18.092;2022-08-19T03:48:31;33.75;;;24.50;;
7426;SDS011;3755;59.316;18.092;2022-08-19T03:51:00;35.80;;;24.85;;
7426;SDS011;3755;59.316;18.092;2022-08-19T03:53:28;33.70;;;24.77;;
7426;SDS011;3755;59.316;18.092;2022-08-19T03:55:56;31.48;;;24.13;;
7426;SDS011;3755;59.316;18.092;2022-08-19T03:58:26;32.35;;;23.27;;
7426;SDS011;3755;59.316;18.092;2022-08-19T04:00:54;31.98;;;23.20;;
7426;SDS011;3755;59.316;18.092;2022-08-19T04:03:21;32.83;;;22.30;;
7426;SDS011;3755;59.316;18.092;2022-08-19T04:05:49;36.60;;;24.05;;
7426;SDS011;3755;59.316;18.092;2022-08-19T04:08:16;34.72;;;23.38;;
7426;SDS011;3755;59.316;18.092;2022-08-19T04:10:45;32.17;;;23.13;;
7426;SDS011;3755;59.316;18.092;2022-08-19T04:13:13;34.90;;;23.52;;
7426;SDS011;3755;59.316;18.092;2022-08-19T04:15:42;35.13;;;24.05;;
7426;SDS011;3755;59.316;18.092;2022-08-19T04:18:11;36.03;;;23.83;;
7426;SDS011;3755;59.316;18.092;2022-08-19T04:20:42;33.38;;;23.08;;
7426;SDS011;3755;59.316;18.092;2022-08-19T04:23:11;34.35;;;24.10;;
7426;SDS011;3755;59.316;18.092;2022-08-19T04:25:40;32.90;;;23.00;;
7426;SDS011;3755;59.316;18.092;2022-08-19T04:28:09;29.48;;;23.15;;
7426;SDS011;3755;59.316;18.092;2022-08-19T04:30:39;33.05;;;24.45;;
7426;SDS011;3755;59.316;18.092;2022-08-19T04:33:09;36.38;;;23.55;;
7426;SDS011;3755;59.316;18.092;2022-08-19T04:35:37;39.53;;;24.38;;
7426;SDS011;3755;59.316;18.092;2022-08-19T04:38:06;36.38;;;24.40;;
7426;SDS011;3755;59.316;18.092;2022-08-19T04:40:39;35.95;;;23.15;;
7426;SDS011;3755;59.316;18.092;2022-08-19T04:43:24;38.35;;;24.38;;
7426;SDS011;3755;59.316;18.092;2022-08-19T04:45:54;34.95;;;23.73;;
7426;SDS011;3755;59.316;18.092;2022-08-19T04:48:21;36.90;;;25.10;;
7426;SDS011;3755;59.316;18.092;2022-08-19T04:50:51;34.00;;;23.40;;
7426;SDS011;3755;59.316;18.092;2022-08-19T04:53:23;32.72;;;23.10;;
7426;SDS011;3755;59.316;18.092;2022-08-19T04:55:53;35.92;;;23.58;;
7426;SDS011;3755;59.316;18.092;2022-08-19T04:58:21;29.35;;;21.75;;
7426;SDS011;3755;59.316;18.092;2022-08-19T05:00:48;31.52;;;22.52;;
7426;SDS011;3755;59.316;18.092;2022-08-19T05:03:17;30.23;;;21.10;;
7426;SDS011;3755;59.316;18.092;2022-08-19T05:05:47;31.25;;;21.50;;
7426;SDS011;3755;59.316;18.092;2022-08-19T05:08:16;30.98;;;21.83;;
7426;SDS011;3755;59.316;18.092;2022-08-19T05:10:45;29.45;;;22.08;;
7426;SDS011;3755;59.316;18.092;2022-08-19T05:13:14;30.42;;;21.85;;
7426;SDS011;3755;59.316;18.092;2022-08-19T05:15:42;33.63;;;24.05;;
7426;SDS011;3755;59.316;18.092;2022-08-19T05:18:10;34.85;;;22.63;;
7426;SDS011;3755;59.316;18.092;2022-08-19T05:20:55;34.97;;;23.13;;
7426;SDS011;3755;59.316;18.092;2022-08-19T05:23:46;32.67;;;22.27;;
7426;SDS011;3755;59.316;18.092;2022-08-19T05:26:13;31.40;;;21.90;;
7426;SDS011;3755;59.316;18.092;2022-08-19T05:28:41;27.45;;;20.70;;
7426;SDS011;3755;59.316;18.092;2022-08-19T05:31:08;27.05;;;19.92;;
7426;SDS011;3755;59.316;18.092;2022-08-19T05:33:36;28.20;;;19.85;;
7426;SDS011;3755;59.316;18.092;2022-08-19T05:36:06;32.30;;;21.73;;
7426;SDS011;3755;59.316;18.092;2022-08-19T05:38:34;28.70;;;18.60;;
7426;SDS011;3755;59.316;18.092;2022-08-19T05:41:05;26.77;;;19.70;;
7426;SDS011;3755;59.316;18.092;2022-08-19T05:43:34;28.35;;;20.75;;
7426;SDS011;3755;59.316;18.092;2022-08-19T05:46:05;29.90;;;20.92;;
7426;SDS011;3755;59.316;18.092;2022-08-19T05:48:33;27.90;;;19.70;;
7426;SDS011;3755;59.316;18.092;2022-08-19T05:51:03;27.77;;;20.15;;
7426;SDS011;3755;59.316;18.092;2022-08-19T05:53:34;25.52;;;19.92;;
7426;SDS011;3755;59.316;18.092;2022-08-19T05:56:03;24.30;;;19.23;;
7426;SDS011;3755;59.316;18.092;2022-08-19T05:58:32;28.58;;;19.55;;
7426;SDS011;3755;59.316;18.092;2022-08-19T06:00:59;25.85;;;19.52;;
7426;SDS011;3755;59.316;18.092;2022-08-19T06:03:30;30.52;;;19.48;;
7426;SDS011;3755;59.316;18.092;2022-08-19T06:06:00;28.33;;;20.35;;
7426;SDS011;3755;59.316;18.092;2022-08-19T06:08:29;25.75;;;18.95;;
7426;SDS011;3755;59.316;18.092;2022-08-19T06:10:56;22.08;;;18.45;;
7426;SDS011;3755;59.316;18.092;2022-08-19T06:13:24;27.38;;;20.88;;
7426;SDS011;3755;59.316;18.092;2022-08-19T06:15:53;30.58;;;18.70;;
7426;SDS011;3755;59.316;18.092;2022-08-19T06:18:20;25.60;;;18.67;;
7426;SDS011;3755;59.316;18.092;2022-08-19T06:20:47;24.25;;;19.02;;
7426;SDS011;3755;59.316;18.092;2022-08-19T06:23:15;22.15;;;17.65;;
7426;SDS011;3755;59.316;18.092;2022-08-19T06:25:43;26.17;;;18.95;;
7426;SDS011;3755;59.316;18.092;2022-08-19T06:28:10;20.85;;;16.67;;
7426;SDS011;3755;59.316;18.092;2022-08-19T06:30:38;24.90;;;17.20;;
7426;SDS011;3755;59.316;18.092;2022-08-19T06:33:05;22.88;;;17.35;;
7426;SDS011;3755;59.316;18.092;2022-08-19T06:35:38;26.73;;;18.63;;
7426;SDS011;3755;59.316;18.092;2022-08-19T06:38:05;22.70;;;15.48;;
7426;SDS011;3755;59.316;18.092;2022-08-19T06:40:35;23.02;;;18.23;;
7426;SDS011;3755;59.316;18.092;2022-08-19T06:43:05;23.50;;;18.30;;
7426;SDS011;3755;59.316;18.092;2022-08-19T06:45:33;29.08;;;20.30;;
7426;SDS011;3755;59.316;18.092;2022-08-19T06:48:03;27.75;;;18.85;;
7426;SDS011;3755;59.316;18.092;2022-08-19T06:50:32;28.50;;;17.35;;
7426;SDS011;3755;59.316;18.092;2022-08-19T06:53:00;32.40;;;17.23;;
7426;SDS011;3755;59.316;18.092;2022-08-19T06:55:30;23.30;;;14.57;;
7426;SDS011;3755;59.316;18.092;2022-08-19T06:57:58;28.00;;;16.45;;
7426;SDS011;3755;59.316;18.092;2022-08-19T07:00:31;21.70;;;16.15;;
7426;SDS011;3755;59.316;18.092;2022-08-19T07:02:58;15.40;;;12.40;;
7426;SDS011;3755;59.316;18.092;2022-08-19T07:05:27;16.75;;;12.23;;
7426;SDS011;3755;59.316;18.092;2022-08-19T07:07:57;14.65;;;11.90;;
7426;SDS011;3755;59.316;18.092;2022-08-19T07:10:24;19.05;;;12.63;;
7426;SDS011;3755;59.316;18.092;2022-08-19T07:12:51;15.60;;;11.07;;
7426;SDS011;3755;59.316;18.092;2022-08-19T07:15:19;17.80;;;11.85;;
7426;SDS011;3755;59.316;18.092;2022-08-19T07:17:48;17.77;;;11.30;;
7426;SDS011;3755;59.316;18.092;2022-08-19T07:20:17;20.15;;;11.20;;
7426;SDS011;3755;59.316;18.092;2022-08-19T07:22:44;16.65;;;9.77;;
7426;SDS011;3755;59.316;18.092;2022-08-19T07:25:11;22.77;;;9.40;;
7426;SDS011;3755;59.316;18.092;2022-08-19T07:27:41;12.05;;;9.50;;
7426;SDS011;3755;59.316;18.092;2022-08-19T07:30:09;15.90;;;9.52;;
7426;SDS011;3755;59.316;18.092;2022-08-19T07:32:38;13.65;;;8.82;;
7426;SDS011;3755;59.316;18.092;2022-08-19T07:35:07;12.95;;;8.07;;
7426;SDS011;3755;59.316;18.092;2022-08-19T07:37:35;16.23;;;8.70;;
7426;SDS011;3755;59.316;18.092;2022-08-19T07:40:04;17.58;;;10.23;;
7426;SDS011;3755;59.316;18.092;2022-08-19T07:42:34;12.40;;;8.85;;
7426;SDS011;3755;59.316;18.092;2022-08-19T07:45:06;12.35;;;9.25;;
7426;SDS011;3755;59.316;18.092;2022-08-19T07:47:36;14.43;;;9.00;;
7426;SDS011;3755;59.316;18.092;2022-08-19T07:50:18;14.85;;;8.73;;
7426;SDS011;3755;59.316;18.092;2022-08-19T07:52:50;16.95;;;9.45;;
7426;SDS011;3755;59.316;18.092;2022-08-19T07:55:18;15.98;;;8.75;;
7426;SDS011;3755;59.316;18.092;2022-08-19T07:57:47;16.70;;;9.15;;
7426;SDS011;3755;59.316;18.092;2022-08-19T08:00:17;15.52;;;8.52;;
7426;SDS011;3755;59.316;18.092;2022-08-19T08:02:45;17.80;;;9.00;;
7426;SDS011;3755;59.316;18.092;2022-08-19T08:05:14;18.35;;;8.40;;
7426;SDS011;3755;59.316;18.092;2022-08-19T08:08:10;12.88;;;7.55;;
7426;SDS011;3755;59.316;18.092;2022-08-19T08:10:55;13.38;;;7.07;;
7426;SDS011;3755;59.316;18.092;2022-08-19T08:13:22;13.05;;;7.82;;
7426;SDS011;3755;59.316;18.092;2022-08-19T08:15:50;14.63;;;7.68;;
7426;SDS011;3755;59.316;18.092;2022-08-19T08:18:17;13.63;;;7.68;;
7426;SDS011;3755;59.316;18.092;2022-08-19T08:20:47;12.48;;;7.47;;
7426;SDS011;3755;59.316;18.092;2022-08-19T08:23:15;12.50;;;7.65;;
7426;SDS011;3755;59.316;18.092;2022-08-19T08:25:50;14.13;;;7.53;;
7426;SDS011;3755;59.316;18.092;2022-08-19T08:28:19;10.98;;;7.40;;
7426;SDS011;3755;59.316;18.092;2022-08-19T08:30:47;12.40;;;7.90;;
7426;SDS011;3755;59.316;18.092;2022-08-19T08:33:16;12.02;;;7.38;;
7426;SDS011;3755;59.316;18.092;2022-08-19T08:35:47;9.15;;;6.40;;
7426;SDS011;3755;59.316;18.092;2022-08-19T08:38:15;16.98;;;7.70;;
7426;SDS011;3755;59.316;18.092;2022-08-19T08:40:44;14.40;;;7.35;;
7426;SDS011;3755;59.316;18.092;2022-08-19T08:43:19;13.68;;;7.50;;
7426;SDS011;3755;59.316;18.092;2022-08-19T08:45:52;11.93;;;7.88;;
7426;SDS011;3755;59.316;18.092;2022-08-19T08:48:30;12.88;;;7.55;;
7426;SDS011;3755;59.316;18.092;2022-08-19T08:51:05;14.13;;;6.63;;
7426;SDS011;3755;59.316;18.092;2022-08-19T08:53:36;13.98;;;7.75;;
7426;SDS011;3755;59.316;18.092;2022-08-19T08:56:04;15.68;;;7.20;;
7426;SDS011;3755;59.316;18.092;2022-08-19T08:58:40;18.30;;;7.10;;
7426;SDS011;3755;59.316;18.092;2022-08-19T09:01:21;13.32;;;7.15;;
7426;SDS011;3755;59.316;18.092;2022-08-19T09:03:50;13.05;;;7.13;;
7426;SDS011;3755;59.316;18.092;2022-08-19T09:06:23;11.45;;;6.78;;
7426;SDS011;3755;59.316;18.092;2022-08-19T09:08:59;10.98;;;7.05;;
7426;SDS011;3755;59.316;18.092;2022-08-19T09:11:36;13.68;;;6.82;;
7426;SDS011;3755;59.316;18.092;2022-08-19T09:14:15;15.73;;;6.50;;
7426;SDS011;3755;59.316;18.092;2022-08-19T09:16:53;14.18;;;7.05;;
7426;SDS011;3755;59.316;18.092;2022-08-19T09:19:24;12.10;;;7.03;;
7426;SDS011;3755;59.316;18.092;2022-08-19T09:21:55;11.07;;;6.32;;
7426;SDS011;3755;59.316;18.092;2022-08-19T09:24:25;17.33;;;6.78;;
7426;SDS011;3755;59.316;18.092;2022-08-19T09:26:53;15.20;;;7.25;;
7426;SDS011;3755;59.316;18.092;2022-08-19T09:29:22;12.38;;;6.63;;
7426;SDS011;3755;59.316;18.092;2022-08-19T09:31:51;11.57;;;6.50;;
7426;SDS011;3755;59.316;18.092;2022-08-19T09:34:21;13.52;;;7.35;;
7426;SDS011;3755;59.316;18.092;2022-08-19T09:36:53;11.43;;;6.60;;
7426;SDS011;3755;59.316;18.092;2022-08-19T09:39:26;16.15;;;6.32;;
7426;SDS011;3755;59.316;18.092;2022-08-19T09:42:01;14.02;;;6.60;;
7426;SDS011;3755;59.316;18.092;2022-08-19T09:44:38;14.73;;;6.63;;
7426;SDS011;3755;59.316;18.092;2022-08-19T09:47:20;12.93;;;5.90;;
7426;SDS011;3755;59.316;18.092;2022-08-19T09:49:48;9.43;;;6.30;;
7426;SDS011;3755;59.316;18.092;2022-08-19T09:52:27;13.77;;;7.03;;
7426;SDS011;3755;59.316;18.092;2022-08-19T09:55:03;7.97;;;5.70;;
7426;SDS011;3755;59.316;18.092;2022-08-19T09:57:31;15.05;;;6.05;;
7426;SDS011;3755;59.316;18.092;2022-08-19T09:59:59;10.57;;;6.15;;
7426;SDS011;3755;59.316;18.092;2022-08-19T10:02:27;11.63;;;6.45;;
7426;SDS011;3755;59.316;18.092;2022-08-19T10:04:57;13.93;;;6.10;;
7426;SDS011;3755;59.316;18.092;2022-08-19T10:07:48;10.73;;;6.20;;
7426;SDS011;3755;59.316;18.092;2022-08-19T10:10:17;10.68;;;7.10;;
7426;SDS011;3755;59.316;18.092;2022-08-19T10:12:45;11.65;;;6.82;;
7426;SDS011;3755;59.316;18.092;2022-08-19T10:15:15;8.20;;;5.55;;
7426;SDS011;3755;59.316;18.092;2022-08-19T10:17:46;10.75;;;6.18;;
7426;SDS011;3755;59.316;18.092;2022-08-19T10:20:14;8.07;;;6.78;;
7426;SDS011;3755;59.316;18.092;2022-08-19T10:22:43;8.73;;;6.40;;
7426;SDS011;3755;59.316;18.092;2022-08-19T10:25:14;10.10;;;5.97;;
7426;SDS011;3755;59.316;18.092;2022-08-19T10:27:44;12.15;;;5.88;;
7426;SDS011;3755;59.316;18.092;2022-08-19T10:30:13;10.20;;;6.20;;
7426;SDS011;3755;59.316;18.092;2022-08-19T10:32:44;13.45;;;6.65;;
7426;SDS011;3755;59.316;18.092;2022-08-19T10:35:13;7.47;;;5.45;;
7426;SDS011;3755;59.316;18.092;2022-08-19T10:37:42;9.00;;;5.80;;
7426;SDS011;3755;59.316;18.092;2022-08-19T10:40:12;12.43;;;6.10;;
7426;SDS011;3755;59.316;18.092;2022-08-19T10:42:42;12.45;;;5.90;;
7426;SDS011;3755;59.316;18.092;2022-08-19T10:45:12;13.95;;;6.10;;
7426;SDS011;3755;59.316;18.092;2022-08-19T10:47:47;8.43;;;6.43;;
7426;SDS011;3755;59.316;18.092;2022-08-19T10:50:19;11.30;;;6.07;;
7426;SDS011;3755;59.316;18.092;2022-08-19T10:53:05;8.98;;;5.70;;
7426;SDS011;3755;59.316;18.092;2022-08-19T10:55:44;9.70;;;6.28;;
7426;SDS011;3755;59.316;18.092;2022-08-19T10:58:30;12.68;;;5.78;;
7426;SDS011;3755;59.316;18.092;2022-08-19T11:00:59;7.90;;;5.78;;
7426;SDS011;3755;59.316;18.092;2022-08-19T11:03:32;10.23;;;6.20;;
7426;SDS011;3755;59.316;18.092;2022-08-19T11:06:00;13.05;;;6.60;;
7426;SDS011;3755;59.316;18.092;2022-08-19T11:08:28;10.82;;;5.18;;
7426;SDS011;3755;59.316;18.092;2022-08-19T11:11:05;10.23;;;5.80;;
7426;SDS011;3755;59.316;18.092;2022-08-19T11:13:34;14.05;;;5.70;;
7426;SDS011;3755;59.316;18.092;2022-08-19T11:16:13;10.65;;;5.65;;
7426;SDS011;3755;59.316;18.092;2022-08-19T11:18:42;7.18;;;5.13;;
7426;SDS011;3755;59.316;18.092;2022-08-19T11:21:15;11.05;;;6.47;;
7426;SDS011;3755;59.316;18.092;2022-08-19T11:24:03;13.75;;;6.65;;
7426;SDS011;3755;59.316;18.092;2022-08-19T11:26:35;9.18;;;5.90;;
7426;SDS011;3755;59.316;18.092;2022-08-19T11:29:04;14.60;;;6.00;;
7426;SDS011;3755;59.316;18.092;2022-08-19T11:31:36;12.52;;;5.70;;
7426;SDS011;3755;59.316;18.092;2022-08-19T11:34:06;11.57;;;6.43;;
7426;SDS011;3755;59.316;18.092;2022-08-19T11:36:38;11.07;;;5.70;;
7426;SDS011;3755;59.316;18.092;2022-08-19T11:39:06;9.45;;;5.90;;
7426;SDS011;3755;59.316;18.092;2022-08-19T11:41:37;10.90;;;6.18;;
7426;SDS011;3755;59.316;18.092;2022-08-19T11:44:06;8.35;;;6.30;;
7426;SDS011;3755;59.316;18.092;2022-08-19T11:46:35;14.57;;;6.30;;
7426;SDS011;3755;59.316;18.092;2022-08-19T11:49:05;8.77;;;6.22;;
7426;SDS011;3755;59.316;18.092;2022-08-19T11:51:34;11.35;;;6.50;;
7426;SDS011;3755;59.316;18.092;2022-08-19T11:54:04;12.05;;;6.20;;
7426;SDS011;3755;59.316;18.092;2022-08-19T11:56:38;9.93;;;5.97;;
7426;SDS011;3755;59.316;18.092;2022-08-19T11:59:06;10.48;;;5.68;;
7426;SDS011;3755;59.316;18.092;2022-08-19T12:01:36;13.82;;;6.35;;
7426;SDS011;3755;59.316;18.092;2022-08-19T12:04:06;8.43;;;6.00;;
7426;SDS011;3755;59.316;18.092;2022-08-19T12:06:34;15.55;;;6.00;;
7426;SDS011;3755;59.316;18.092;2022-08-19T12:09:08;13.45;;;7.28;;
7426;SDS011;3755;59.316;18.092;2022-08-19T12:11:45;12.38;;;6.50;;
7426;SDS011;3755;59.316;18.092;2022-08-19T12:14:14;10.68;;;5.55;;
7426;SDS011;3755;59.316;18.092;2022-08-19T12:16:43;10.43;;;5.25;;
7426;SDS011;3755;59.316;18.092;2022-08-19T12:19:29;10.30;;;5.30;;
7426;SDS011;3755;59.316;18.092;2022-08-19T12:21:58;12.27;;;6.13;;
7426;SDS011;3755;59.316;18.092;2022-08-19T12:24:31;7.75;;;5.00;;
7426;SDS011;3755;59.316;18.092;2022-08-19T12:27:03;7.70;;;5.30;;
7426;SDS011;3755;59.316;18.092;2022-08-19T12:29:31;10.05;;;5.25;;
7426;SDS011;3755;59.316;18.092;2022-08-19T12:32:02;6.93;;;4.47;;
7426;SDS011;3755;59.316;18.092;2022-08-19T12:34:30;7.63;;;5.22;;
7426;SDS011;3755;59.316;18.092;2022-08-19T12:37:00;7.72;;;4.80;;
7426;SDS011;3755;59.316;18.092;2022-08-19T12:39:37;8.05;;;5.35;;
7426;SDS011;3755;59.316;18.092;2022-08-19T12:42:15;10.10;;;5.60;;
7426;SDS011;3755;59.316;18.092;2022-08-19T12:44:46;10.55;;;5.78;;
7426;SDS011;3755;59.316;18.092;2022-08-19T12:47:15;11.00;;;5.00;;
7426;SDS011;3755;59.316;18.092;2022-08-19T12:49:48;9.43;;;5.82;;
7426;SDS011;3755;59.316;18.092;2022-08-19T12:52:17;13.68;;;5.70;;
7426;SDS011;3755;59.316;18.092;2022-08-19T12:54:46;9.43;;;5.47;;
7426;SDS011;3755;59.316;18.092;2022-08-19T12:57:16;9.10;;;5.43;;
7426;SDS011;3755;59.316;18.092;2022-08-19T12:59:51;13.07;;;5.80;;
7426;SDS011;3755;59.316;18.092;2022-08-19T13:02:20;11.50;;;6.22;;
7426;SDS011;3755;59.316;18.092;2022-08-19T13:04:53;14.18;;;5.63;;
7426;SDS011;3755;59.316;18.092;2022-08-19T13:07:21;9.20;;;5.88;;
7426;SDS011;3755;59.316;18.092;2022-08-19T13:09:51;10.02;;;5.40;;
7426;SDS011;3755;59.316;18.092;2022-08-19T13:12:20;11.00;;;5.80;;
7426;SDS011;3755;59.316;18.092;2022-08-19T13:14:49;9.10;;;4.85;;
7426;SDS011;3755;59.316;18.092;2022-08-19T13:17:18;10.60;;;5.70;;
7426;SDS011;3755;59.316;18.092;2022-08-19T13:19:50;10.02;;;5.68;;
7426;SDS011;3755;59.316;18.092;2022-08-19T13:22:18;13.32;;;5.40;;
7426;SDS011;3755;59.316;18.092;2022-08-19T13:24:45;10.50;;;5.50;;
7426;SDS011;3755;59.316;18.092;2022-08-19T13:27:14;12.65;;;5.88;;
7426;SDS011;3755;59.316;18.092;2022-08-19T13:29:43;12.57;;;6.40;;
7426;SDS011;3755;59.316;18.092;2022-08-19T13:32:28;12.18;;;5.70;;
7426;SDS011;3755;59.316;18.092;2022-08-19T13:35:14;12.05;;;6.28;;
7426;SDS011;3755;59.316;18.092;2022-08-19T13:37:41;9.98;;;5.90;;
7426;SDS011;3755;59.316;18.092;2022-08-19T13:40:14;14.60;;;5.95;;
7426;SDS011;3755;59.316;18.092;2022-08-19T13:42:47;11.35;;;6.13;;
7426;SDS011;3755;59.316;18.092;2022-08-19T13:45:18;8.63;;;5.32;;
7426;SDS011;3755;59.316;18.092;2022-08-19T13:47:48;10.70;;;6.20;;
7426;SDS011;3755;59.316;18.092;2022-08-19T13:50:37;8.93;;;5.65;;
7426;SDS011;3755;59.316;18.092;2022-08-19T13:53:20;8.85;;;6.63;;
7426;SDS011;3755;59.316;18.092;2022-08-19T13:55:49;11.00;;;5.93;;
7426;SDS011;3755;59.316;18.092;2022-08-19T13:58:18;12.63;;;6.03;;
7426;SDS011;3755;59.316;18.092;2022-08-19T14:00:48;10.90;;;6.05;;
7426;SDS011;3755;59.316;18.092;2022-08-19T14:03:17;10.48;;;6.05;;
7426;SDS011;3755;59.316;18.092;2022-08-19T14:05:50;9.63;;;6.15;;
7426;SDS011;3755;59.316;18.092;2022-08-19T14:08:23;11.27;;;6.47;;
7426;SDS011;3755;59.316;18.092;2022-08-19T14:10:53;11.88;;;6.57;;
7426;SDS011;3755;59.316;18.092;2022-08-19T14:13:25;13.77;;;6.50;;
7426;SDS011;3755;59.316;18.092;2022-08-19T14:16:13;14.93;;;7.35;;
7426;SDS011;3755;59.316;18.092;2022-08-19T14:18:43;11.88;;;6.65;;
7426;SDS011;3755;59.316;18.092;2022-08-19T14:21:20;9.80;;;6.45;;
7426;SDS011;3755;59.316;18.092;2022-08-19T14:24:03;15.20;;;7.00;;
7426;SDS011;3755;59.316;18.092;2022-08-19T14:27:05;13.38;;;6.05;;
7426;SDS011;3755;59.316;18.092;2022-08-19T14:30:12;13.05;;;6.35;;
7426;SDS011;3755;59.316;18.092;2022-08-19T14:33:10;14.15;;;7.50;;
7426;SDS011;3755;59.316;18.092;2022-08-19T14:36:03;13.50;;;7.10;;
7426;SDS011;3755;59.316;18.092;2022-08-19T14:38:46;13.15;;;6.65;;
7426;SDS011;3755;59.316;18.092;2022-08-19T14:41:21;9.77;;;6.47;;
7426;SDS011;3755;59.316;18.092;2022-08-19T14:44:05;12.85;;;6.90;;
7426;SDS011;3755;59.316;18.092;2022-08-19T14:46:39;8.30;;;6.50;;
7426;SDS011;3755;59.316;18.092;2022-08-19T14:49:26;14.02;;;7.07;;
7426;SDS011;3755;59.316;18.092;2022-08-19T14:52:08;12.93;;;7.40;;
7426;SDS011;3755;59.316;18.092;2022-08-19T14:54:49;8.77;;;6.45;;
7426;SDS011;3755;59.316;18.092;2022-08-19T14:57:33;13.95;;;7.63;;
7426;SDS011;3755;59.316;18.092;2022-08-19T15:00:14;11.57;;;7.07;;
7426;SDS011;3755;59.316;18.092;2022-08-19T15:02:45;8.98;;;6.82;;
7426;SDS011;3755;59.316;18.092;2022-08-19T15:08:27;11.07;;;7.15;;